Terminal Aerodrome Forecast
Issued by NWS

Home | Current Version | Previous Version | Text Only | Print | Product List | Glossary On
Versions: 1 2 3 4 5 6 7 8 9 10 11 12 13 14 15 16 17
000
FTUS45 KVEF 270900 AAC
TAFEED
TAF AMD
KEED 270945Z 2710/2806 25003KT P6SM BKN010 OVC020
     FM271200 VRB05KT P6SM SCT010 OVC030
     FM271700 VRB05KT P6SM FEW020 SCT040
     FM272000 20005KT P6SM SCT060=

USA.gov is the U.S. government's official web portal to all federal, state and local government web resources and services.